Challenge Paragon — 9V7950 — position and weather

sailwx.info

Track history (hours):
 
Tides and Currents Weather Stations Pressure Air Temp Water Temp Dewpoint Dewpoint Depression Visibility Wind Speed Wind Dir Waves Ship Positions

Challenge Paragon

Last reported at 2017-Oct-30 14:30 UTC. Time now 2017-Nov-20 17:31 UTC.
Position N 37°06' W 130°34'.
Warning: this ship's position is 21 days out of date.

Length 180 m; draft 7.3 m.

Type: Tanker. MMSI: 563637000.

Date/timePositionNaut miles runAvg speedWind from/ knotsBaromVisibWave heightAir tempDewpointWater temp
2017-Oct-30 14:30N 37°06' W 130°34'1110.7
2017-Oct-30 13:27N 37°00' W 130°22'510.4
2017-Oct-30 13:00N 36°58' W 130°17'910.1
2017-Oct-30 12:09N 36°53' W 130°08'110.3
2017-Oct-30 12:01N 36°53' W 130°06'12 9.8
2017-Oct-30 10:50N 36°46' W 129°54'13 9.8
2017-Oct-30 09:32N 36°39' W 129°41'010.2
2017-Oct-30 09:31N 36°39' W 129°41'7 9.9
2017-Oct-30 08:49N 36°36' W 129°33'6 9.9
2017-Oct-30 08:15N 36°33' W 129°27'2 9.9
2017-Oct-30 08:00N 36°31' W 129°25'9 9.8
2017-Oct-30 07:04N 36°27' W 129°15'110.2
2017-Oct-30 07:01N 36°26' W 129°14'5 9.9
2017-Oct-30 06:30N 36°24' W 129°09'5 9.7
2017-Oct-30 06:00N 36°21' W 129°04'1210.0
2017-Oct-30 04:48N 36°15' W 128°51'612.7
2017-Oct-30 04:19N 36°11' W 128°45'412.2
2017-Oct-30 04:00N 36°09' W 128°41'510.4
2017-Oct-30 03:30N 36°06' W 128°36'510.5
2017-Oct-30 03:00N 36°04' W 128°30'1710.8
2017-Oct-30 01:24N 35°54' W 128°12'410.1
2017-Oct-30 01:00N 35°52' W 128°08'510.0
2017-Oct-30 00:30N 35°49' W 128°03'10 9.9
2017-Oct-29 23:29N 35°44' W 127°53'10 9.7
2017-Oct-29 22:24N 35°38' W 127°42'7610.3
2017-Oct-29 14:59N 34°58' W 126°23'1510.3
2017-Oct-29 13:29N 34°49' W 126°07'7210.3
2017-Oct-29 06:29N 34°27' W 124°43'910.9
2017-Oct-29 05:38N 34°27' W 124°32'211.0
2017-Oct-29 05:27N 34°27' W 124°30'510.9
2017-Oct-29 05:00N 34°27' W 124°24'511.0
2017-Oct-29 04:30N 34°27' W 124°17'610.9
2017-Oct-29 03:59N 34°27' W 124°10'9811.0
2017-Oct-28 19:00N 34°27' W 122°11'510.5
2017-Oct-28 18:31N 34°27' W 122°05'510.7
2017-Oct-28 18:00N 34°27' W 121°58'510.7
2017-Oct-28 17:30N 34°27' W 121°52'510.8
2017-Oct-28 17:00N 34°27' W 121°45'510.8
2017-Oct-28 16:30N 34°27' W 121°38'511.0
2017-Oct-28 16:00N 34°27' W 121°32'611.1
2017-Oct-28 15:30N 34°27' W 121°25'510.8
2017-Oct-28 15:00N 34°27' W 121°19'511.0
2017-Oct-28 14:31N 34°27' W 121°12'611.0
2017-Oct-28 14:00N 34°27' W 121°05'510.9
2017-Oct-28 13:30N 34°27' W 120°58'610.9
2017-Oct-28 13:00N 34°26' W 120°52'611.1
2017-Oct-28 12:25N 34°25' W 120°44'510.9
2017-Oct-28 11:59N 34°23' W 120°39'510.6
2017-Oct-28 11:30N 34°22' W 120°33'510.6
2017-Oct-28 10:59N 34°20' W 120°27'611.1
2017-Oct-28 10:26N 34°19' W 120°19'511.5
2017-Oct-28 10:00N 34°17' W 120°14'611.3
2017-Oct-28 09:28N 34°16' W 120°07'511.0
2017-Oct-28 08:59N 34°15' W 120°00'510.5
2017-Oct-28 08:30N 34°13' W 119°54'510.3
2017-Oct-28 08:00N 34°12' W 119°48'510.0
2017-Oct-28 07:30N 34°11' W 119°42'510.5
2017-Oct-28 07:00N 34°09' W 119°36'510.5
2017-Oct-28 06:30N 34°08' W 119°30'510.4
2017-Oct-28 06:01N 34°06' W 119°24'610.6
2017-Oct-28 05:26N 34°05' W 119°17'510.9
2017-Oct-28 05:00N 34°03' W 119°12'510.9
2017-Oct-28 04:30N 34°00' W 119°06'612.2
2017-Oct-28 04:00N 33°57' W 119°00'713.4
2017-Oct-28 03:28N 33°53' W 118°52'510.9
2017-Oct-28 02:57N 33°51' W 118°47'510.6
2017-Oct-28 02:30N 33°48' W 118°41'510.6
2017-Oct-28 01:59N 33°46' W 118°36'510.7
2017-Oct-28 01:30N 33°43' W 118°30'510.7
2017-Oct-28 01:00N 33°40' W 118°25'510.7
2017-Oct-28 00:30N 33°38' W 118°19'5 9.6
2017-Oct-27 23:59N 33°42' W 118°15'3 5.7
2017-Oct-27 23:30N 33°44' W 118°17'1 2.2
2017-Oct-27 23:00N 33°45' W 118°16'0 0.0
2017-Oct-27 22:30N 33°45' W 118°16'0 0.0
2017-Oct-27 22:00N 33°45' W 118°16'0 0.0
2017-Oct-27 21:30N 33°45' W 118°16'0 0.0
2017-Oct-27 21:00N 33°45' W 118°16'0 0.0
2017-Oct-27 20:30N 33°45' W 118°16'0 0.0
2017-Oct-27 20:00N 33°45' W 118°16'0 0.0
2017-Oct-27 19:30N 33°45' W 118°16'0 0.0
2017-Oct-27 19:00N 33°45' W 118°16'0 0.0
2017-Oct-27 18:30N 33°45' W 118°16'0 0.0
2017-Oct-27 18:00N 33°45' W 118°16'0 0.0
2017-Oct-27 17:30N 33°45' W 118°16'0 0.0
2017-Oct-27 17:01N 33°45' W 118°16'0 0.0
2017-Oct-27 16:30N 33°45' W 118°16'0 0.0
2017-Oct-27 16:00N 33°45' W 118°16'0 0.0
2017-Oct-27 15:30N 33°45' W 118°16'0 0.0
2017-Oct-27 15:00N 33°45' W 118°16'0 0.0
2017-Oct-27 14:30N 33°45' W 118°16'0 0.0
2017-Oct-27 13:54N 33°45' W 118°16'0 0.0
2017-Oct-27 13:29N 33°45' W 118°16'0 0.0
2017-Oct-27 13:00N 33°45' W 118°16'0 0.0
2017-Oct-27 12:30N 33°45' W 118°16'0 0.0
2017-Oct-27 11:58N 33°45' W 118°16'0 0.0
2017-Oct-27 11:30N 33°45' W 118°16'0 0.0
2017-Oct-27 10:58N 33°45' W 118°16'0 0.0
2017-Oct-27 10:30N 33°45' W 118°16'0 0.0
2017-Oct-27 10:00N 33°45' W 118°16'0 0.0
2017-Oct-27 09:30N 33°45' W 118°16'0 0.0
2017-Oct-27 09:00N 33°45' W 118°16'0 0.0
2017-Oct-27 08:30N 33°45' W 118°16'0 0.0
2017-Oct-27 08:00N 33°45' W 118°16'0 0.0
2017-Oct-27 07:30N 33°45' W 118°16'0 0.0
2017-Oct-27 07:00N 33°45' W 118°16'0 0.0
2017-Oct-27 06:30N 33°45' W 118°16'0 0.0
2017-Oct-27 06:00N 33°45' W 118°16'0 0.0
2017-Oct-27 05:30N 33°45' W 118°16'0 0.0
2017-Oct-27 05:00N 33°45' W 118°16'0 0.0
2017-Oct-27 04:30N 33°45' W 118°16'0 0.0
2017-Oct-27 04:00N 33°45' W 118°16'0 0.0
2017-Oct-27 03:30N 33°45' W 118°16'0 0.0
2017-Oct-27 03:00N 33°45' W 118°16'0 0.0
2017-Oct-27 02:30N 33°45' W 118°16'0 0.0
2017-Oct-27 02:00N 33°45' W 118°16'0 0.0
2017-Oct-27 01:30N 33°45' W 118°16'0 0.0
2017-Oct-27 00:59N 33°45' W 118°16'0 0.0
2017-Oct-27 00:30N 33°45' W 118°16'0 0.0
2017-Oct-27 00:00N 33°45' W 118°16'0 0.1
2017-Oct-26 23:30N 33°45' W 118°16'2 3.0
2017-Oct-26 23:00N 33°44' W 118°16'2 4.0
2017-Oct-26 22:26N 33°43' W 118°14'0 0.1
2017-Oct-26 21:56N 33°43' W 118°14'0 0.1
2017-Oct-26 21:26N 33°43' W 118°14'0 0.1
2017-Oct-26 20:56N 33°43' W 118°14'0 0.0
2017-Oct-26 20:26N 33°43' W 118°14'0 0.0
2017-Oct-26 19:50N 33°43' W 118°14'0 0.0
2017-Oct-26 19:26N 33°43' W 118°14'0 0.0
2017-Oct-26 18:56N 33°43' W 118°14'0 0.0
2017-Oct-26 18:26N 33°43' W 118°14'0 0.0
2017-Oct-26 17:56N 33°43' W 118°14'0 0.0
2017-Oct-26 17:26N 33°43' W 118°14'0 0.0
2017-Oct-26 16:50N 33°43' W 118°14'0 0.1
2017-Oct-26 16:26N 33°43' W 118°14'0 0.0
2017-Oct-26 15:56N 33°43' W 118°14'0 0.0
2017-Oct-26 15:26N 33°43' W 118°14'0 0.0
2017-Oct-26 14:50N 33°43' W 118°14'0 0.0
2017-Oct-26 14:26N 33°43' W 118°14'0 0.0
2017-Oct-26 13:20N 33°43' W 118°14'0 0.0
2017-Oct-26 12:56N 33°43' W 118°14'0 0.0
2017-Oct-26 12:26N 33°43' W 118°14'0 0.0
2017-Oct-26 11:56N 33°43' W 118°14'0 0.0
2017-Oct-26 11:08N 33°43' W 118°14'0 0.0
2017-Oct-26 10:56N 33°43' W 118°14'0 0.1
2017-Oct-26 10:14N 33°43' W 118°14'0 0.0
2017-Oct-26 09:56N 33°43' W 118°14'0 0.1
2017-Oct-26 09:26N 33°43' W 118°14'0 0.1
2017-Oct-26 08:56N 33°43' W 118°14'0 0.0
2017-Oct-26 08:26N 33°43' W 118°14'0 0.0
2017-Oct-26 07:56N 33°43' W 118°14'0 0.0
2017-Oct-26 07:26N 33°43' W 118°14'0 0.0
2017-Oct-26 06:56N 33°43' W 118°14'0 0.0
2017-Oct-26 06:26N 33°43' W 118°14'0 0.0
2017-Oct-26 05:50N 33°43' W 118°14'0 0.0
2017-Oct-26 05:26N 33°43' W 118°14'0 0.0
2017-Oct-26 04:14N 33°43' W 118°14'0 0.1
2017-Oct-26 03:56N 33°43' W 118°14'0 0.2
2017-Oct-26 03:26N 33°43' W 118°14'0 0.2
2017-Oct-26 02:56N 33°43' W 118°14'0 0.1
2017-Oct-26 02:26N 33°43' W 118°14'0 0.0
2017-Oct-26 01:50N 33°43' W 118°14'0 0.1
2017-Oct-26 01:26N 33°43' W 118°14'0 0.0
2017-Oct-26 00:56N 33°43' W 118°14'0 0.0
2017-Oct-26 00:20N 33°43' W 118°14'0 0.0
2017-Oct-25 23:50N 33°43' W 118°14'0 0.0
2017-Oct-25 23:26N 33°43' W 118°14'0 0.0
2017-Oct-25 22:56N 33°43' W 118°14'0 0.0
2017-Oct-25 22:26N 33°43' W 118°14'0 0.0
2017-Oct-25 21:56N 33°43' W 118°14'0 0.0
2017-Oct-25 21:26N 33°43' W 118°14'0 0.0
2017-Oct-25 20:56N 33°43' W 118°14'0 0.0
2017-Oct-25 20:20N 33°43' W 118°14'0 0.1
2017-Oct-25 19:56N 33°43' W 118°14'0 0.1
2017-Oct-25 19:26N 33°43' W 118°14'0 0.1
2017-Oct-25 18:50N 33°43' W 118°14'0 0.0
2017-Oct-25 18:20N 33°43' W 118°14'0 0.0
2017-Oct-25 17:56N 33°43' W 118°14'0 0.0
2017-Oct-25 17:26N 33°43' W 118°14'0 0.0
2017-Oct-25 16:50N 33°43' W 118°14'0 0.0
2017-Oct-25 16:20N 33°43' W 118°14'0 0.0
2017-Oct-25 15:56N 33°43' W 118°14'0 0.0
2017-Oct-25 15:14N 33°43' W 118°14'0 0.0
2017-Oct-25 14:56N 33°43' W 118°14'0 0.0
2017-Oct-25 14:26N 33°43' W 118°14'0 0.1
2017-Oct-25 13:56N 33°43' W 118°14'0 0.0
2017-Oct-25 12:32N 33°43' W 118°14'0 0.0
2017-Oct-25 12:14N 33°43' W 118°14'0 0.0
2017-Oct-25 11:56N 33°43' W 118°14'0 0.1
2017-Oct-25 11:26N 33°43' W 118°14'0 0.0
2017-Oct-25 10:32N 33°43' W 118°14'0 0.0
2017-Oct-25 10:26N 33°43' W 118°14'0 0.0
2017-Oct-25 08:32N 33°43' W 118°14'0 0.0
2017-Oct-25 08:26N 33°43' W 118°14'0 0.1
2017-Oct-25 07:56N 33°43' W 118°14'0 0.0
2017-Oct-25 06:32N 33°43' W 118°14'0 0.1
2017-Oct-25 06:08N 33°43' W 118°14'0 0.0
2017-Oct-25 05:44N 33°43' W 118°14'0 0.0
2017-Oct-25 04:20N 33°43' W 118°14'0 0.2
2017-Oct-25 03:56N 33°43' W 118°14'0 0.1
2017-Oct-25 03:20N 33°43' W 118°14'0 0.1
2017-Oct-25 02:56N 33°43' W 118°14'0 0.1
2017-Oct-25 02:20N 33°43' W 118°14'0 0.0
2017-Oct-25 01:44N 33°43' W 118°14'0 0.0
2017-Oct-25 01:20N 33°43' W 118°14'0 0.0
2017-Oct-25 00:50N 33°43' W 118°14'0 0.1
2017-Oct-25 00:26N 33°43' W 118°14'0 0.1
2017-Oct-24 23:50N 33°43' W 118°14'0 0.1
2017-Oct-24 23:14N 33°43' W 118°14'0 0.1
2017-Oct-24 22:56N 33°43' W 118°14'0 0.1
2017-Oct-24 22:26N 33°43' W 118°14'0 0.1
2017-Oct-24 21:56N 33°43' W 118°14'0 0.0
2017-Oct-24 20:56N 33°43' W 118°14'0 0.0
2017-Oct-24 20:26N 33°43' W 118°14'0 0.0
2017-Oct-24 19:56N 33°43' W 118°14'0 0.0
2017-Oct-24 19:14N 33°43' W 118°14'0 0.0
2017-Oct-24 18:56N 33°43' W 118°14'0 0.0
2017-Oct-24 18:26N 33°43' W 118°14'0 0.0
2017-Oct-24 17:56N 33°43' W 118°14'0 0.1
2017-Oct-24 17:26N 33°43' W 118°14'0 0.2
2017-Oct-24 16:50N 33°43' W 118°14'0 0.0
2017-Oct-24 16:26N 33°43' W 118°14'0 0.0
2017-Oct-24 15:32N 33°43' W 118°14'0 0.0
2017-Oct-24 15:20N 33°43' W 118°14'0 0.0
2017-Oct-24 08:44N 33°43' W 118°14'0 0.0
2017-Oct-24 04:56N 33°43' W 118°14'0 0.1
2017-Oct-24 03:20N 33°43' W 118°14'0 0.0
2017-Oct-24 01:56N 33°43' W 118°14'0 0.0
2017-Oct-24 01:26N 33°43' W 118°14'0 0.0
2017-Oct-24 00:50N 33°43' W 118°14'0 0.0
2017-Oct-24 00:25N 33°43' W 118°14'0 0.0
2017-Oct-23 23:56N 33°43' W 118°14'0 0.0
2017-Oct-23 23:19N 33°43' W 118°14'0 0.0
2017-Oct-23 22:32N 33°43' W 118°14'0 0.0
2017-Oct-23 22:26N 33°43' W 118°14'0 0.0
2017-Oct-23 21:56N 33°43' W 118°14'0 0.0
2017-Oct-23 21:26N 33°43' W 118°14'0 0.0
2017-Oct-23 20:56N 33°43' W 118°14'0 0.1
2017-Oct-23 20:26N 33°43' W 118°14'0 0.1
2017-Oct-23 19:50N 33°43' W 118°14'0 0.0
2017-Oct-23 19:25N 33°43' W 118°14'0 0.2
2017-Oct-23 18:44N 33°43' W 118°14'0 0.2
2017-Oct-23 18:25N 33°43' W 118°14'0 0.1
2017-Oct-23 17:56N 33°43' W 118°14'0 0.0
2017-Oct-23 17:26N 33°43' W 118°14'0 0.0
2017-Oct-23 16:56N 33°43' W 118°14'0 0.0
2017-Oct-23 16:20N 33°43' W 118°14'0 0.0
2017-Oct-23 15:55N 33°43' W 118°14'0 0.0
2017-Oct-23 15:26N 33°43' W 118°14'0 0.0
2017-Oct-23 14:50N 33°43' W 118°14'0 0.0
2017-Oct-23 14:20N 33°43' W 118°14'0 0.0
2017-Oct-23 13:49N 33°43' W 118°14'0 0.0
2017-Oct-23 09:32N 33°43' W 118°14'0 0.0
2017-Oct-23 09:26N 33°43' W 118°14'0 0.0
2017-Oct-23 08:55N 33°43' W 118°14'0 0.0
2017-Oct-23 08:19N 33°43' W 118°14'0 0.0
2017-Oct-23 07:43N 33°43' W 118°14'0 0.0
2017-Oct-23 07:26N 33°43' W 118°14'0 0.0
2017-Oct-23 06:55N 33°43' W 118°14'0 0.0
2017-Oct-22 06:25N 33°43' W 118°14'0 0.1
2017-Oct-22 05:55N 33°43' W 118°14'0 0.1
2017-Oct-22 05:25N 33°43' W 118°14'0 0.0
2017-Oct-22 03:25N 33°43' W 118°14'0 0.0
2017-Oct-21 22:13N 33°43' W 118°14'0 0.0
2017-Oct-21 17:37N 33°43' W 118°14'  
Track history (hours):
 
Tides and Currents Weather Stations Pressure Air Temp Water Temp Dewpoint Dewpoint Depression Visibility Wind Speed Wind Dir Waves Ship Positions

Challenge Paragon

Last reported at 2017-Oct-30 14:30 UTC. Time now 2017-Nov-20 17:31 UTC.
Position N 37°06' W 130°34'.
Warning: this ship's position is 21 days out of date.

Length 180 m; draft 7.3 m.

Type: Tanker. MMSI: 563637000.

Date/timePositionNaut miles runAvg speedWind from/ knotsBaromVisibWave heightAir tempDewpointWater temp
2017-Oct-30 14:30N 37°06' W 130°34'1110.7
2017-Oct-30 13:27N 37°00' W 130°22'510.4
2017-Oct-30 13:00N 36°58' W 130°17'910.1
2017-Oct-30 12:09N 36°53' W 130°08'110.3
2017-Oct-30 12:01N 36°53' W 130°06'12 9.8
2017-Oct-30 10:50N 36°46' W 129°54'13 9.8
2017-Oct-30 09:32N 36°39' W 129°41'010.2
2017-Oct-30 09:31N 36°39' W 129°41'7 9.9
2017-Oct-30 08:49N 36°36' W 129°33'6 9.9
2017-Oct-30 08:15N 36°33' W 129°27'2 9.9
2017-Oct-30 08:00N 36°31' W 129°25'9 9.8
2017-Oct-30 07:04N 36°27' W 129°15'110.2
2017-Oct-30 07:01N 36°26' W 129°14'5 9.9
2017-Oct-30 06:30N 36°24' W 129°09'5 9.7
2017-Oct-30 06:00N 36°21' W 129°04'1210.0
2017-Oct-30 04:48N 36°15' W 128°51'612.7
2017-Oct-30 04:19N 36°11' W 128°45'412.2
2017-Oct-30 04:00N 36°09' W 128°41'510.4
2017-Oct-30 03:30N 36°06' W 128°36'510.5
2017-Oct-30 03:00N 36°04' W 128°30'1710.8
2017-Oct-30 01:24N 35°54' W 128°12'410.1
2017-Oct-30 01:00N 35°52' W 128°08'510.0
2017-Oct-30 00:30N 35°49' W 128°03'10 9.9
2017-Oct-29 23:29N 35°44' W 127°53'10 9.7
2017-Oct-29 22:24N 35°38' W 127°42'7610.3
2017-Oct-29 14:59N 34°58' W 126°23'1510.3
2017-Oct-29 13:29N 34°49' W 126°07'7210.3
2017-Oct-29 06:29N 34°27' W 124°43'910.9
2017-Oct-29 05:38N 34°27' W 124°32'211.0
2017-Oct-29 05:27N 34°27' W 124°30'510.9
2017-Oct-29 05:00N 34°27' W 124°24'511.0
2017-Oct-29 04:30N 34°27' W 124°17'610.9
2017-Oct-29 03:59N 34°27' W 124°10'9811.0
2017-Oct-28 19:00N 34°27' W 122°11'510.5
2017-Oct-28 18:31N 34°27' W 122°05'510.7
2017-Oct-28 18:00N 34°27' W 121°58'510.7
2017-Oct-28 17:30N 34°27' W 121°52'510.8
2017-Oct-28 17:00N 34°27' W 121°45'510.8
2017-Oct-28 16:30N 34°27' W 121°38'511.0
2017-Oct-28 16:00N 34°27' W 121°32'611.1
2017-Oct-28 15:30N 34°27' W 121°25'510.8
2017-Oct-28 15:00N 34°27' W 121°19'511.0
2017-Oct-28 14:31N 34°27' W 121°12'611.0
2017-Oct-28 14:00N 34°27' W 121°05'510.9
2017-Oct-28 13:30N 34°27' W 120°58'610.9
2017-Oct-28 13:00N 34°26' W 120°52'611.1
2017-Oct-28 12:25N 34°25' W 120°44'510.9
2017-Oct-28 11:59N 34°23' W 120°39'510.6
2017-Oct-28 11:30N 34°22' W 120°33'510.6
2017-Oct-28 10:59N 34°20' W 120°27'611.1
2017-Oct-28 10:26N 34°19' W 120°19'511.5
2017-Oct-28 10:00N 34°17' W 120°14'611.3
2017-Oct-28 09:28N 34°16' W 120°07'511.0
2017-Oct-28 08:59N 34°15' W 120°00'510.5
2017-Oct-28 08:30N 34°13' W 119°54'510.3
2017-Oct-28 08:00N 34°12' W 119°48'510.0
2017-Oct-28 07:30N 34°11' W 119°42'510.5
2017-Oct-28 07:00N 34°09' W 119°36'510.5
2017-Oct-28 06:30N 34°08' W 119°30'510.4
2017-Oct-28 06:01N 34°06' W 119°24'610.6
2017-Oct-28 05:26N 34°05' W 119°17'510.9
2017-Oct-28 05:00N 34°03' W 119°12'510.9
2017-Oct-28 04:30N 34°00' W 119°06'612.2
2017-Oct-28 04:00N 33°57' W 119°00'713.4
2017-Oct-28 03:28N 33°53' W 118°52'510.9
2017-Oct-28 02:57N 33°51' W 118°47'510.6
2017-Oct-28 02:30N 33°48' W 118°41'510.6
2017-Oct-28 01:59N 33°46' W 118°36'510.7
2017-Oct-28 01:30N 33°43' W 118°30'510.7
2017-Oct-28 01:00N 33°40' W 118°25'510.7
2017-Oct-28 00:30N 33°38' W 118°19'5 9.6
2017-Oct-27 23:59N 33°42' W 118°15'3 5.7
2017-Oct-27 23:30N 33°44' W 118°17'1 2.2
2017-Oct-27 23:00N 33°45' W 118°16'0 0.0
2017-Oct-27 22:30N 33°45' W 118°16'0 0.0
2017-Oct-27 22:00N 33°45' W 118°16'0 0.0
2017-Oct-27 21:30N 33°45' W 118°16'0 0.0
2017-Oct-27 21:00N 33°45' W 118°16'0 0.0
2017-Oct-27 20:30N 33°45' W 118°16'0 0.0
2017-Oct-27 20:00N 33°45' W 118°16'0 0.0
2017-Oct-27 19:30N 33°45' W 118°16'0 0.0
2017-Oct-27 19:00N 33°45' W 118°16'0 0.0
2017-Oct-27 18:30N 33°45' W 118°16'0 0.0
2017-Oct-27 18:00N 33°45' W 118°16'0 0.0
2017-Oct-27 17:30N 33°45' W 118°16'0 0.0
2017-Oct-27 17:01N 33°45' W 118°16'0 0.0
2017-Oct-27 16:30N 33°45' W 118°16'0 0.0
2017-Oct-27 16:00N 33°45' W 118°16'0 0.0
2017-Oct-27 15:30N 33°45' W 118°16'0 0.0
2017-Oct-27 15:00N 33°45' W 118°16'0 0.0
2017-Oct-27 14:30N 33°45' W 118°16'0 0.0
2017-Oct-27 13:54N 33°45' W 118°16'0 0.0
2017-Oct-27 13:29N 33°45' W 118°16'0 0.0
2017-Oct-27 13:00N 33°45' W 118°16'0 0.0
2017-Oct-27 12:30N 33°45' W 118°16'0 0.0
2017-Oct-27 11:58N 33°45' W 118°16'0 0.0
2017-Oct-27 11:30N 33°45' W 118°16'0 0.0
2017-Oct-27 10:58N 33°45' W 118°16'0 0.0
2017-Oct-27 10:30N 33°45' W 118°16'0 0.0
2017-Oct-27 10:00N 33°45' W 118°16'0 0.0
2017-Oct-27 09:30N 33°45' W 118°16'0 0.0
2017-Oct-27 09:00N 33°45' W 118°16'0 0.0
2017-Oct-27 08:30N 33°45' W 118°16'0 0.0
2017-Oct-27 08:00N 33°45' W 118°16'0 0.0
2017-Oct-27 07:30N 33°45' W 118°16'0 0.0
2017-Oct-27 07:00N 33°45' W 118°16'0 0.0
2017-Oct-27 06:30N 33°45' W 118°16'0 0.0
2017-Oct-27 06:00N 33°45' W 118°16'0 0.0
2017-Oct-27 05:30N 33°45' W 118°16'0 0.0
2017-Oct-27 05:00N 33°45' W 118°16'0 0.0
2017-Oct-27 04:30N 33°45' W 118°16'0 0.0
2017-Oct-27 04:00N 33°45' W 118°16'0 0.0
2017-Oct-27 03:30N 33°45' W 118°16'0 0.0
2017-Oct-27 03:00N 33°45' W 118°16'0 0.0
2017-Oct-27 02:30N 33°45' W 118°16'0 0.0
2017-Oct-27 02:00N 33°45' W 118°16'0 0.0
2017-Oct-27 01:30N 33°45' W 118°16'0 0.0
2017-Oct-27 00:59N 33°45' W 118°16'0 0.0
2017-Oct-27 00:30N 33°45' W 118°16'0 0.0
2017-Oct-27 00:00N 33°45' W 118°16'0 0.1
2017-Oct-26 23:30N 33°45' W 118°16'2 3.0
2017-Oct-26 23:00N 33°44' W 118°16'2 4.0
2017-Oct-26 22:26N 33°43' W 118°14'0 0.1
2017-Oct-26 21:56N 33°43' W 118°14'0 0.1
2017-Oct-26 21:26N 33°43' W 118°14'0 0.1
2017-Oct-26 20:56N 33°43' W 118°14'0 0.0
2017-Oct-26 20:26N 33°43' W 118°14'0 0.0
2017-Oct-26 19:50N 33°43' W 118°14'0 0.0
2017-Oct-26 19:26N 33°43' W 118°14'0 0.0
2017-Oct-26 18:56N 33°43' W 118°14'0 0.0
2017-Oct-26 18:26N 33°43' W 118°14'0 0.0
2017-Oct-26 17:56N 33°43' W 118°14'0 0.0
2017-Oct-26 17:26N 33°43' W 118°14'0 0.0
2017-Oct-26 16:50N 33°43' W 118°14'0 0.1
2017-Oct-26 16:26N 33°43' W 118°14'0 0.0
2017-Oct-26 15:56N 33°43' W 118°14'0 0.0
2017-Oct-26 15:26N 33°43' W 118°14'0 0.0
2017-Oct-26 14:50N 33°43' W 118°14'0 0.0
2017-Oct-26 14:26N 33°43' W 118°14'0 0.0
2017-Oct-26 13:20N 33°43' W 118°14'0 0.0
2017-Oct-26 12:56N 33°43' W 118°14'0 0.0
2017-Oct-26 12:26N 33°43' W 118°14'0 0.0
2017-Oct-26 11:56N 33°43' W 118°14'0 0.0
2017-Oct-26 11:08N 33°43' W 118°14'0 0.0
2017-Oct-26 10:56N 33°43' W 118°14'0 0.1
2017-Oct-26 10:14N 33°43' W 118°14'0 0.0
2017-Oct-26 09:56N 33°43' W 118°14'0 0.1
2017-Oct-26 09:26N 33°43' W 118°14'0 0.1
2017-Oct-26 08:56N 33°43' W 118°14'0 0.0
2017-Oct-26 08:26N 33°43' W 118°14'0 0.0
2017-Oct-26 07:56N 33°43' W 118°14'0 0.0
2017-Oct-26 07:26N 33°43' W 118°14'0 0.0
2017-Oct-26 06:56N 33°43' W 118°14'0 0.0
2017-Oct-26 06:26N 33°43' W 118°14'0 0.0
2017-Oct-26 05:50N 33°43' W 118°14'0 0.0
2017-Oct-26 05:26N 33°43' W 118°14'0 0.0
2017-Oct-26 04:14N 33°43' W 118°14'0 0.1
2017-Oct-26 03:56N 33°43' W 118°14'0 0.2
2017-Oct-26 03:26N 33°43' W 118°14'0 0.2
2017-Oct-26 02:56N 33°43' W 118°14'0 0.1
2017-Oct-26 02:26N 33°43' W 118°14'0 0.0
2017-Oct-26 01:50N 33°43' W 118°14'0 0.1
2017-Oct-26 01:26N 33°43' W 118°14'0 0.0
2017-Oct-26 00:56N 33°43' W 118°14'0 0.0
2017-Oct-26 00:20N 33°43' W 118°14'0 0.0
2017-Oct-25 23:50N 33°43' W 118°14'0 0.0
2017-Oct-25 23:26N 33°43' W 118°14'0 0.0
2017-Oct-25 22:56N 33°43' W 118°14'0 0.0
2017-Oct-25 22:26N 33°43' W 118°14'0 0.0
2017-Oct-25 21:56N 33°43' W 118°14'0 0.0
2017-Oct-25 21:26N 33°43' W 118°14'0 0.0
2017-Oct-25 20:56N 33°43' W 118°14'0 0.0
2017-Oct-25 20:20N 33°43' W 118°14'0 0.1
2017-Oct-25 19:56N 33°43' W 118°14'0 0.1
2017-Oct-25 19:26N 33°43' W 118°14'0 0.1
2017-Oct-25 18:50N 33°43' W 118°14'0 0.0
2017-Oct-25 18:20N 33°43' W 118°14'0 0.0
2017-Oct-25 17:56N 33°43' W 118°14'0 0.0
2017-Oct-25 17:26N 33°43' W 118°14'0 0.0
2017-Oct-25 16:50N 33°43' W 118°14'0 0.0
2017-Oct-25 16:20N 33°43' W 118°14'0 0.0
2017-Oct-25 15:56N 33°43' W 118°14'0 0.0
2017-Oct-25 15:14N 33°43' W 118°14'0 0.0
2017-Oct-25 14:56N 33°43' W 118°14'0 0.0
2017-Oct-25 14:26N 33°43' W 118°14'0 0.1
2017-Oct-25 13:56N 33°43' W 118°14'0 0.0
2017-Oct-25 12:32N 33°43' W 118°14'0 0.0
2017-Oct-25 12:14N 33°43' W 118°14'0 0.0
2017-Oct-25 11:56N 33°43' W 118°14'0 0.1
2017-Oct-25 11:26N 33°43' W 118°14'0 0.0
2017-Oct-25 10:32N 33°43' W 118°14'0 0.0
2017-Oct-25 10:26N 33°43' W 118°14'0 0.0
2017-Oct-25 08:32N 33°43' W 118°14'0 0.0
2017-Oct-25 08:26N 33°43' W 118°14'0 0.1
2017-Oct-25 07:56N 33°43' W 118°14'0 0.0
2017-Oct-25 06:32N 33°43' W 118°14'0 0.1
2017-Oct-25 06:08N 33°43' W 118°14'0 0.0
2017-Oct-25 05:44N 33°43' W 118°14'0 0.0
2017-Oct-25 04:20N 33°43' W 118°14'0 0.2
2017-Oct-25 03:56N 33°43' W 118°14'0 0.1
2017-Oct-25 03:20N 33°43' W 118°14'0 0.1
2017-Oct-25 02:56N 33°43' W 118°14'0 0.1
2017-Oct-25 02:20N 33°43' W 118°14'0 0.0
2017-Oct-25 01:44N 33°43' W 118°14'0 0.0
2017-Oct-25 01:20N 33°43' W 118°14'0 0.0
2017-Oct-25 00:50N 33°43' W 118°14'0 0.1
2017-Oct-25 00:26N 33°43' W 118°14'0 0.1
2017-Oct-24 23:50N 33°43' W 118°14'0 0.1
2017-Oct-24 23:14N 33°43' W 118°14'0 0.1
2017-Oct-24 22:56N 33°43' W 118°14'0 0.1
2017-Oct-24 22:26N 33°43' W 118°14'0 0.1
2017-Oct-24 21:56N 33°43' W 118°14'0 0.0
2017-Oct-24 20:56N 33°43' W 118°14'0 0.0
2017-Oct-24 20:26N 33°43' W 118°14'0 0.0
2017-Oct-24 19:56N 33°43' W 118°14'0 0.0
2017-Oct-24 19:14N 33°43' W 118°14'0 0.0
2017-Oct-24 18:56N 33°43' W 118°14'0 0.0
2017-Oct-24 18:26N 33°43' W 118°14'0 0.0
2017-Oct-24 17:56N 33°43' W 118°14'0 0.1
2017-Oct-24 17:26N 33°43' W 118°14'0 0.2
2017-Oct-24 16:50N 33°43' W 118°14'0 0.0
2017-Oct-24 16:26N 33°43' W 118°14'0 0.0
2017-Oct-24 15:32N 33°43' W 118°14'0 0.0
2017-Oct-24 15:20N 33°43' W 118°14'0 0.0
2017-Oct-24 08:44N 33°43' W 118°14'0 0.0
2017-Oct-24 04:56N 33°43' W 118°14'0 0.1
2017-Oct-24 03:20N 33°43' W 118°14'0 0.0
2017-Oct-24 01:56N 33°43' W 118°14'0 0.0
2017-Oct-24 01:26N 33°43' W 118°14'0 0.0
2017-Oct-24 00:50N 33°43' W 118°14'0 0.0
2017-Oct-24 00:25N 33°43' W 118°14'0 0.0
2017-Oct-23 23:56N 33°43' W 118°14'0 0.0
2017-Oct-23 23:19N 33°43' W 118°14'0 0.0
2017-Oct-23 22:32N 33°43' W 118°14'0 0.0
2017-Oct-23 22:26N 33°43' W 118°14'0 0.0
2017-Oct-23 21:56N 33°43' W 118°14'0 0.0
2017-Oct-23 21:26N 33°43' W 118°14'0 0.0
2017-Oct-23 20:56N 33°43' W 118°14'0 0.1
2017-Oct-23 20:26N 33°43' W 118°14'0 0.1
2017-Oct-23 19:50N 33°43' W 118°14'0 0.0
2017-Oct-23 19:25N 33°43' W 118°14'0 0.2
2017-Oct-23 18:44N 33°43' W 118°14'0 0.2
2017-Oct-23 18:25N 33°43' W 118°14'0 0.1
2017-Oct-23 17:56N 33°43' W 118°14'0 0.0
2017-Oct-23 17:26N 33°43' W 118°14'0 0.0
2017-Oct-23 16:56N 33°43' W 118°14'0 0.0
2017-Oct-23 16:20N 33°43' W 118°14'0 0.0
2017-Oct-23 15:55N 33°43' W 118°14'0 0.0
2017-Oct-23 15:26N 33°43' W 118°14'0 0.0
2017-Oct-23 14:50N 33°43' W 118°14'0 0.0
2017-Oct-23 14:20N 33°43' W 118°14'0 0.0
2017-Oct-23 13:49N 33°43' W 118°14'0 0.0
2017-Oct-23 09:32N 33°43' W 118°14'0 0.0
2017-Oct-23 09:26N 33°43' W 118°14'0 0.0
2017-Oct-23 08:55N 33°43' W 118°14'0 0.0
2017-Oct-23 08:19N 33°43' W 118°14'0 0.0
2017-Oct-23 07:43N 33°43' W 118°14'0 0.0
2017-Oct-23 07:26N 33°43' W 118°14'0 0.0
2017-Oct-23 06:55N 33°43' W 118°14'0 0.0
2017-Oct-22 06:25N 33°43' W 118°14'0 0.1
2017-Oct-22 05:55N 33°43' W 118°14'0 0.1
2017-Oct-22 05:25N 33°43' W 118°14'0 0.0
2017-Oct-22 03:25N 33°43' W 118°14'0 0.0
2017-Oct-21 22:13N 33°43' W 118°14'0 0.0
2017-Oct-21 17:37N 33°43' W 118°14'  

Dump ship's entire track history